sensor_id;sensor_type;location;lat;lon;timestamp;pressure;altitude;pressure_sealevel;temperature;humidity
31717;BME280;18301;51.076;17.046;2023-04-15T00:04:39;98809.75;;;11.37;100.00
31717;BME280;18301;51.076;17.046;2023-04-15T00:09:41;98810.41;;;11.39;100.00
31717;BME280;18301;51.076;17.046;2023-04-15T00:14:42;98807.09;;;11.45;100.00
31717;BME280;18301;51.076;17.046;2023-04-15T00:19:45;98809.06;;;11.35;100.00
31717;BME280;18301;51.076;17.046;2023-04-15T00:24:46;98812.28;;;11.38;100.00
31717;BME280;18301;51.076;17.046;2023-04-15T00:29:48;98811.44;;;11.38;100.00
31717;BME280;18301;51.076;17.046;2023-04-15T00:34:49;98810.06;;;11.34;100.00
31717;BME280;18301;51.076;17.046;2023-04-15T00:39:51;98811.00;;;11.24;100.00
31717;BME280;18301;51.076;17.046;2023-04-15T00:44:52;98802.19;;;11.40;100.00
31717;BME280;18301;51.076;17.046;2023-04-15T00:49:54;98808.66;;;11.29;100.00
31717;BME280;18301;51.076;17.046;2023-04-15T00:54:55;98816.41;;;11.50;100.00
31717;BME280;18301;51.076;17.046;2023-04-15T00:59:57;98819.28;;;11.49;100.00
31717;BME280;18301;51.076;17.046;2023-04-15T01:04:58;98820.88;;;11.34;100.00
31717;BME280;18301;51.076;17.046;2023-04-15T01:10:00;98819.47;;;11.29;100.00
31717;BME280;18301;51.076;17.046;2023-04-15T01:15:03;98816.69;;;11.39;100.00
31717;BME280;18301;51.076;17.046;2023-04-15T01:20:05;98812.81;;;11.42;100.00
31717;BME280;18301;51.076;17.046;2023-04-15T01:25:17;98812.38;;;11.28;100.00
31717;BME280;18301;51.076;17.046;2023-04-15T01:30:20;98817.56;;;11.22;100.00
31717;BME280;18301;51.076;17.046;2023-04-15T01:35:22;98815.47;;;11.34;100.00
31717;BME280;18301;51.076;17.046;2023-04-15T01:40:24;98827.13;;;11.16;100.00
31717;BME280;18301;51.076;17.046;2023-04-15T01:45:25;98831.72;;;11.42;100.00
31717;BME280;18301;51.076;17.046;2023-04-15T01:50:27;98826.91;;;11.27;100.00
31717;BME280;18301;51.076;17.046;2023-04-15T01:55:29;98823.88;;;11.31;100.00
31717;BME280;18301;51.076;17.046;2023-04-15T02:00:31;98831.28;;;11.28;100.00
31717;BME280;18301;51.076;17.046;2023-04-15T02:05:32;98831.34;;;11.37;100.00
31717;BME280;18301;51.076;17.046;2023-04-15T02:10:34;98831.97;;;11.48;100.00
31717;BME280;18301;51.076;17.046;2023-04-15T02:15:35;98836.75;;;11.37;100.00
31717;BME280;18301;51.076;17.046;2023-04-15T02:20:37;98834.19;;;11.35;100.00
31717;BME280;18301;51.076;17.046;2023-04-15T02:25:39;98845.09;;;11.25;100.00
31717;BME280;18301;51.076;17.046;2023-04-15T02:30:41;98845.63;;;11.11;100.00
31717;BME280;18301;51.076;17.046;2023-04-15T02:35:42;98848.94;;;11.05;100.00
31717;BME280;18301;51.076;17.046;2023-04-15T02:40:45;98854.13;;;10.98;100.00
31717;BME280;18301;51.076;17.046;2023-04-15T02:45:49;98861.53;;;10.96;100.00
31717;BME280;18301;51.076;17.046;2023-04-15T02:50:51;98853.75;;;10.93;100.00
31717;BME280;18301;51.076;17.046;2023-04-15T02:55:53;98858.97;;;10.95;100.00
31717;BME280;18301;51.076;17.046;2023-04-15T03:00:54;98861.53;;;10.78;100.00
31717;BME280;18301;51.076;17.046;2023-04-15T03:05:56;98869.78;;;10.95;100.00
31717;BME280;18301;51.076;17.046;2023-04-15T03:10:58;98881.19;;;10.89;100.00
31717;BME280;18301;51.076;17.046;2023-04-15T03:16:01;98900.56;;;10.74;99.98
31717;BME280;18301;51.076;17.046;2023-04-15T03:21:03;98902.06;;;10.59;100.00
31717;BME280;18301;51.076;17.046;2023-04-15T03:26:04;98912.97;;;10.40;99.14
31717;BME280;18301;51.076;17.046;2023-04-15T03:31:06;98925.47;;;10.31;99.53
31717;BME280;18301;51.076;17.046;2023-04-15T03:36:08;98908.25;;;10.04;99.91
31717;BME280;18301;51.076;17.046;2023-04-15T03:41:09;98924.09;;;10.17;99.86
31717;BME280;18301;51.076;17.046;2023-04-15T03:46:11;98943.69;;;10.19;99.18
31717;BME280;18301;51.076;17.046;2023-04-15T03:51:12;98959.84;;;10.19;99.08
31717;BME280;18301;51.076;17.046;2023-04-15T03:56:14;98954.19;;;10.03;98.69
31717;BME280;18301;51.076;17.046;2023-04-15T04:01:16;98971.22;;;9.94;97.81
31717;BME280;18301;51.076;17.046;2023-04-15T04:06:17;98969.56;;;9.73;96.89
31717;BME280;18301;51.076;17.046;2023-04-15T04:11:19;98978.63;;;9.72;97.21
31717;BME280;18301;51.076;17.046;2023-04-15T04:16:21;98979.88;;;9.87;96.59
31717;BME280;18301;51.076;17.046;2023-04-15T04:21:23;98993.66;;;9.84;96.59
31717;BME280;18301;51.076;17.046;2023-04-15T04:26:24;98994.78;;;9.91;96.89
31717;BME280;18301;51.076;17.046;2023-04-15T04:31:26;99004.41;;;9.84;96.65
31717;BME280;18301;51.076;17.046;2023-04-15T04:36:28;99014.63;;;9.81;97.32
31717;BME280;18301;51.076;17.046;2023-04-15T04:41:29;99018.91;;;9.83;97.33
31717;BME280;18301;51.076;17.046;2023-04-15T04:46:31;99037.47;;;9.86;96.31
31717;BME280;18301;51.076;17.046;2023-04-15T04:51:32;99036.75;;;9.84;96.08
31717;BME280;18301;51.076;17.046;2023-04-15T04:56:34;99029.94;;;9.90;96.60
31717;BME280;18301;51.076;17.046;2023-04-15T05:01:35;99039.47;;;10.04;96.13
31717;BME280;18301;51.076;17.046;2023-04-15T05:06:37;99038.47;;;9.85;94.70
31717;BME280;18301;51.076;17.046;2023-04-15T05:11:39;99032.78;;;9.69;94.64
31717;BME280;18301;51.076;17.046;2023-04-15T05:16:41;99037.44;;;9.48;94.53
31717;BME280;18301;51.076;17.046;2023-04-15T05:21:43;99053.19;;;9.42;91.98
31717;BME280;18301;51.076;17.046;2023-04-15T05:26:44;99040.97;;;9.38;92.92
31717;BME280;18301;51.076;17.046;2023-04-15T05:31:46;99060.00;;;9.56;90.57
31717;BME280;18301;51.076;17.046;2023-04-15T05:36:48;99080.31;;;9.30;90.06
31717;BME280;18301;51.076;17.046;2023-04-15T05:41:49;99081.53;;;9.56;91.00
31717;BME280;18301;51.076;17.046;2023-04-15T05:46:50;99085.53;;;9.62;90.38
31717;BME280;18301;51.076;17.046;2023-04-15T05:51:52;99087.09;;;9.64;89.14
31717;BME280;18301;51.076;17.046;2023-04-15T05:56:53;99088.66;;;9.67;86.82
31717;BME280;18301;51.076;17.046;2023-04-15T06:01:55;99100.41;;;9.66;88.22
31717;BME280;18301;51.076;17.046;2023-04-15T06:06:57;99107.31;;;9.39;83.01
31717;BME280;18301;51.076;17.046;2023-04-15T06:11:58;99114.66;;;9.37;84.16
31717;BME280;18301;51.076;17.046;2023-04-15T06:17:00;99116.25;;;9.50;82.33
31717;BME280;18301;51.076;17.046;2023-04-15T06:22:02;99133.69;;;9.45;81.40
31717;BME280;18301;51.076;17.046;2023-04-15T06:27:03;99126.09;;;9.30;81.09
31717;BME280;18301;51.076;17.046;2023-04-15T06:32:05;99131.91;;;9.25;79.96
31717;BME280;18301;51.076;17.046;2023-04-15T06:37:07;99140.88;;;9.05;80.89
31717;BME280;18301;51.076;17.046;2023-04-15T06:42:10;99136.94;;;9.09;79.76
31717;BME280;18301;51.076;17.046;2023-04-15T06:47:12;99141.88;;;9.04;78.80
31717;BME280;18301;51.076;17.046;2023-04-15T06:52:15;99147.50;;;9.01;78.58
31717;BME280;18301;51.076;17.046;2023-04-15T06:57:16;99148.66;;;9.08;76.83
31717;BME280;18301;51.076;17.046;2023-04-15T07:02:18;99155.88;;;9.38;79.33
31717;BME280;18301;51.076;17.046;2023-04-15T07:07:20;99148.09;;;9.44;78.96
31717;BME280;18301;51.076;17.046;2023-04-15T07:12:21;99164.09;;;9.86;79.90
31717;BME280;18301;51.076;17.046;2023-04-15T07:17:22;99154.50;;;10.23;75.49
31717;BME280;18301;51.076;17.046;2023-04-15T07:22:24;99153.66;;;10.22;77.25
31717;BME280;18301;51.076;17.046;2023-04-15T07:27:26;99165.84;;;10.07;73.19
31717;BME280;18301;51.076;17.046;2023-04-15T07:32:28;99170.63;;;9.84;73.59
31717;BME280;18301;51.076;17.046;2023-04-15T07:37:29;99179.16;;;9.99;75.68
31717;BME280;18301;51.076;17.046;2023-04-15T07:42:31;99182.06;;;10.26;74.81
31717;BME280;18301;51.076;17.046;2023-04-15T07:47:33;99175.22;;;10.22;73.23
31717;BME280;18301;51.076;17.046;2023-04-15T07:52:34;99185.47;;;10.48;73.92
31717;BME280;18301;51.076;17.046;2023-04-15T07:57:39;99185.47;;;10.48;71.59
31717;BME280;18301;51.076;17.046;2023-04-15T08:02:41;99185.47;;;10.48;71.39
31717;BME280;18301;51.076;17.046;2023-04-15T08:07:43;99193.69;;;10.75;72.43
31717;BME280;18301;51.076;17.046;2023-04-15T08:12:45;99186.81;;;11.00;72.36
31717;BME280;18301;51.076;17.046;2023-04-15T08:17:49;99207.59;;;10.80;69.48
31717;BME280;18301;51.076;17.046;2023-04-15T08:22:51;99205.03;;;10.89;70.61
31717;BME280;18301;51.076;17.046;2023-04-15T08:27:56;99223.25;;;11.34;68.78
31717;BME280;18301;51.076;17.046;2023-04-15T08:32:58;99216.72;;;12.01;69.69
31717;BME280;18301;51.076;17.046;2023-04-15T08:37:59;99213.94;;;12.56;67.24
31717;BME280;18301;51.076;17.046;2023-04-15T08:43:02;99224.66;;;12.48;65.38
31717;BME280;18301;51.076;17.046;2023-04-15T08:48:04;99224.47;;;12.85;64.96
31717;BME280;18301;51.076;17.046;2023-04-15T08:53:08;99241.25;;;12.89;61.92
31717;BME280;18301;51.076;17.046;2023-04-15T08:58:09;99241.03;;;13.00;65.21
31717;BME280;18301;51.076;17.046;2023-04-15T09:03:12;99245.63;;;13.26;63.97
31717;BME280;18301;51.076;17.046;2023-04-15T09:08:14;99243.09;;;13.50;60.61
31717;BME280;18301;51.076;17.046;2023-04-15T09:13:15;99236.09;;;13.22;62.69
31717;BME280;18301;51.076;17.046;2023-04-15T09:18:28;99237.34;;;13.53;61.42
31717;BME280;18301;51.076;17.046;2023-04-15T09:23:31;99245.22;;;13.21;61.54
31717;BME280;18301;51.076;17.046;2023-04-15T09:28:40;99251.94;;;13.08;61.11
31717;BME280;18301;51.076;17.046;2023-04-15T09:33:53;99251.13;;;12.72;64.60
31717;BME280;18301;51.076;17.046;2023-04-15T09:38:58;99253.13;;;12.70;62.46
31717;BME280;18301;51.076;17.046;2023-04-15T09:44:00;99256.03;;;12.59;60.91
31717;BME280;18301;51.076;17.046;2023-04-15T09:49:09;99251.84;;;13.00;61.84
31717;BME280;18301;51.076;17.046;2023-04-15T09:54:11;99264.31;;;13.55;62.99
31717;BME280;18301;51.076;17.046;2023-04-15T09:59:12;99268.72;;;13.56;61.92
31717;BME280;18301;51.076;17.046;2023-04-15T10:04:14;99267.25;;;13.70;58.23
31717;BME280;18301;51.076;17.046;2023-04-15T10:09:16;99270.31;;;13.23;60.26
31717;BME280;18301;51.076;17.046;2023-04-15T10:14:18;99266.53;;;13.59;60.53
31717;BME280;18301;51.076;17.046;2023-04-15T10:19:24;99271.81;;;13.69;60.17
31717;BME280;18301;51.076;17.046;2023-04-15T10:24:30;99273.63;;;13.61;60.78
31717;BME280;18301;51.076;17.046;2023-04-15T10:29:33;99268.19;;;13.87;59.29
31717;BME280;18301;51.076;17.046;2023-04-15T10:34:34;99268.81;;;13.46;59.39
31717;BME280;18301;51.076;17.046;2023-04-15T10:39:38;99271.69;;;13.79;58.08
31717;BME280;18301;51.076;17.046;2023-04-15T10:44:59;99282.47;;;13.63;57.64
31717;BME280;18301;51.076;17.046;2023-04-15T10:50:01;99281.38;;;13.29;56.64
31717;BME280;18301;51.076;17.046;2023-04-15T10:55:12;99275.34;;;13.35;58.88
31717;BME280;18301;51.076;17.046;2023-04-15T11:00:17;99280.94;;;13.94;58.86
31717;BME280;18301;51.076;17.046;2023-04-15T11:05:20;99290.09;;;13.93;54.86
31717;BME280;18301;51.076;17.046;2023-04-15T11:20:31;99294.53;;;14.02;56.92
31717;BME280;18301;51.076;17.046;2023-04-15T11:25:33;99300.78;;;14.29;56.46
31717;BME280;18301;51.076;17.046;2023-04-15T11:30:36;99307.69;;;14.66;57.37
31717;BME280;18301;51.076;17.046;2023-04-15T11:35:40;99311.59;;;14.71;53.39
31717;BME280;18301;51.076;17.046;2023-04-15T11:40:42;99301.81;;;15.19;54.93
31717;BME280;18301;51.076;17.046;2023-04-15T11:46:01;99297.34;;;15.84;54.43
31717;BME280;18301;51.076;17.046;2023-04-15T11:51:04;99299.41;;;16.21;52.14
31717;BME280;18301;51.076;17.046;2023-04-15T11:56:07;99297.06;;;16.49;51.94
31717;BME280;18301;51.076;17.046;2023-04-15T12:01:09;99307.69;;;16.36;51.01
31717;BME280;18301;51.076;17.046;2023-04-15T12:06:18;99318.75;;;15.87;48.60
31717;BME280;18301;51.076;17.046;2023-04-15T12:16:41;99325.38;;;15.93;49.81
31717;BME280;18301;51.076;17.046;2023-04-15T12:21:52;99332.91;;;15.74;50.87
31717;BME280;18301;51.076;17.046;2023-04-15T12:26:55;99331.88;;;15.51;52.38
31717;BME280;18301;51.076;17.046;2023-04-15T12:32:07;99323.75;;;15.67;48.29
31717;BME280;18301;51.076;17.046;2023-04-15T12:37:10;99329.09;;;16.00;49.66
31717;BME280;18301;51.076;17.046;2023-04-15T12:42:13;99330.81;;;15.84;48.78
31717;BME280;18301;51.076;17.046;2023-04-15T12:47:15;99331.84;;;15.83;50.77
31717;BME280;18301;51.076;17.046;2023-04-15T12:52:17;99332.22;;;15.80;48.71
31717;BME280;18301;51.076;17.046;2023-04-15T12:57:18;99333.84;;;15.98;50.69
31717;BME280;18301;51.076;17.046;2023-04-15T13:02:20;99329.72;;;16.10;51.62
31717;BME280;18301;51.076;17.046;2023-04-15T13:07:26;99339.91;;;16.24;51.36
31717;BME280;18301;51.076;17.046;2023-04-15T13:12:27;99334.13;;;16.19;49.92
31717;BME280;18301;51.076;17.046;2023-04-15T13:17:29;99347.69;;;15.72;47.13
31717;BME280;18301;51.076;17.046;2023-04-15T13:22:30;99349.19;;;15.82;49.79
31717;BME280;18301;51.076;17.046;2023-04-15T13:27:32;99334.53;;;16.00;49.71
31717;BME280;18301;51.076;17.046;2023-04-15T13:32:34;99341.66;;;16.01;49.59
31717;BME280;18301;51.076;17.046;2023-04-15T13:37:35;99347.09;;;16.01;48.15
31717;BME280;18301;51.076;17.046;2023-04-15T13:42:37;99344.09;;;15.79;50.28
31717;BME280;18301;51.076;17.046;2023-04-15T13:47:39;99335.88;;;16.04;47.14
31717;BME280;18301;51.076;17.046;2023-04-15T13:52:41;99341.84;;;15.91;47.75
31717;BME280;18301;51.076;17.046;2023-04-15T13:57:42;99337.25;;;16.08;47.91
31717;BME280;18301;51.076;17.046;2023-04-15T14:02:44;99336.84;;;16.19;46.66
31717;BME280;18301;51.076;17.046;2023-04-15T14:07:46;99333.06;;;16.28;47.84
31717;BME280;18301;51.076;17.046;2023-04-15T14:12:47;99329.72;;;16.10;47.12
31717;BME280;18301;51.076;17.046;2023-04-15T14:17:49;99336.53;;;16.14;46.70
31717;BME280;18301;51.076;17.046;2023-04-15T14:22:50;99341.66;;;16.09;48.58
31717;BME280;18301;51.076;17.046;2023-04-15T14:27:52;99348.13;;;16.08;46.29
31717;BME280;18301;51.076;17.046;2023-04-15T14:32:53;99353.97;;;15.80;46.15
31717;BME280;18301;51.076;17.046;2023-04-15T14:37:55;99361.09;;;15.73;46.89
31717;BME280;18301;51.076;17.046;2023-04-15T14:42:57;99354.97;;;15.96;48.39
31717;BME280;18301;51.076;17.046;2023-04-15T14:47:58;99364.31;;;16.01;48.30
31717;BME280;18301;51.076;17.046;2023-04-15T14:53:00;99370.88;;;16.15;48.15
31717;BME280;18301;51.076;17.046;2023-04-15T14:58:02;99372.13;;;15.96;46.96
31717;BME280;18301;51.076;17.046;2023-04-15T15:03:05;99378.59;;;15.54;47.54
31717;BME280;18301;51.076;17.046;2023-04-15T15:08:13;99384.22;;;15.61;48.94
31717;BME280;18301;51.076;17.046;2023-04-15T15:13:15;99387.25;;;15.99;46.63
31717;BME280;18301;51.076;17.046;2023-04-15T15:18:17;99389.94;;;16.23;45.56
31717;BME280;18301;51.076;17.046;2023-04-15T15:23:19;99387.16;;;16.31;47.02
31717;BME280;18301;51.076;17.046;2023-04-15T15:28:21;99396.72;;;16.27;46.94
31717;BME280;18301;51.076;17.046;2023-04-15T15:33:24;99399.44;;;16.19;44.93
31717;BME280;18301;51.076;17.046;2023-04-15T15:38:25;99399.63;;;16.26;47.31
31717;BME280;18301;51.076;17.046;2023-04-15T15:43:26;99410.34;;;16.19;47.88
31717;BME280;18301;51.076;17.046;2023-04-15T15:48:28;99417.50;;;16.04;48.51
31717;BME280;18301;51.076;17.046;2023-04-15T15:53:29;99428.41;;;15.79;49.71
31717;BME280;18301;51.076;17.046;2023-04-15T15:58:32;99430.94;;;15.56;49.86
31717;BME280;18301;51.076;17.046;2023-04-15T16:03:33;99430.94;;;15.48;49.83
31717;BME280;18301;51.076;17.046;2023-04-15T16:08:35;99438.22;;;15.31;50.05
31717;BME280;18301;51.076;17.046;2023-04-15T16:13:37;99434.47;;;15.32;50.37
31717;BME280;18301;51.076;17.046;2023-04-15T16:18:38;99438.69;;;15.10;50.53
31717;BME280;18301;51.076;17.046;2023-04-15T16:23:40;99439.88;;;15.16;50.63
31717;BME280;18301;51.076;17.046;2023-04-15T16:28:41;99446.66;;;15.04;51.18
31717;BME280;18301;51.076;17.046;2023-04-15T16:33:43;99457.13;;;14.90;51.86
31717;BME280;18301;51.076;17.046;2023-04-15T16:38:45;99465.28;;;14.90;52.13
31717;BME280;18301;51.076;17.046;2023-04-15T16:43:48;99466.41;;;14.80;52.03
31717;BME280;18301;51.076;17.046;2023-04-15T16:48:50;99472.03;;;14.86;51.33
31717;BME280;18301;51.076;17.046;2023-04-15T16:53:51;99473.41;;;14.56;51.42
31717;BME280;18301;51.076;17.046;2023-04-15T16:58:53;99480.66;;;14.47;52.30
31717;BME280;18301;51.076;17.046;2023-04-15T17:03:54;99482.47;;;14.39;52.26
31717;BME280;18301;51.076;17.046;2023-04-15T17:08:56;99492.59;;;14.28;52.63
31717;BME280;18301;51.076;17.046;2023-04-15T17:13:58;99503.06;;;14.23;52.83
31717;BME280;18301;51.076;17.046;2023-04-15T17:18:59;99511.66;;;14.19;53.51
31717;BME280;18301;51.076;17.046;2023-04-15T17:24:01;99513.63;;;13.91;53.50
31717;BME280;18301;51.076;17.046;2023-04-15T17:29:02;99522.31;;;13.94;53.74
31717;BME280;18301;51.076;17.046;2023-04-15T17:34:05;99526.84;;;13.86;53.99
31717;BME280;18301;51.076;17.046;2023-04-15T17:39:11;99534.56;;;13.80;54.10
31717;BME280;18301;51.076;17.046;2023-04-15T17:44:14;99539.78;;;13.74;54.44
31717;BME280;18301;51.076;17.046;2023-04-15T17:49:16;99547.50;;;13.69;55.00
31717;BME280;18301;51.076;17.046;2023-04-15T17:54:17;99556.78;;;13.66;55.29
31717;BME280;18301;51.076;17.046;2023-04-15T17:59:19;99575.41;;;13.61;55.84
31717;BME280;18301;51.076;17.046;2023-04-15T18:04:20;99589.91;;;13.42;56.47
31717;BME280;18301;51.076;17.046;2023-04-15T18:09:26;99599.03;;;13.41;57.91
31717;BME280;18301;51.076;17.046;2023-04-15T18:14:28;99612.47;;;13.33;59.71
31717;BME280;18301;51.076;17.046;2023-04-15T18:19:35;99624.63;;;13.29;63.81
31717;BME280;18301;51.076;17.046;2023-04-15T18:24:36;99623.50;;;13.22;64.37
31717;BME280;18301;51.076;17.046;2023-04-15T18:29:38;99637.44;;;12.99;67.74
31717;BME280;18301;51.076;17.046;2023-04-15T18:34:39;99636.00;;;12.95;68.22
31717;BME280;18301;51.076;17.046;2023-04-15T18:39:43;99644.69;;;12.89;69.32
31717;BME280;18301;51.076;17.046;2023-04-15T18:44:44;99660.84;;;12.81;70.27
31717;BME280;18301;51.076;17.046;2023-04-15T18:49:46;99655.13;;;12.84;69.78
31717;BME280;18301;51.076;17.046;2023-04-15T18:54:47;99665.97;;;12.84;69.92
31717;BME280;18301;51.076;17.046;2023-04-15T18:59:49;99671.81;;;12.70;71.54
31717;BME280;18301;51.076;17.046;2023-04-15T19:04:50;99673.38;;;12.82;69.71
31717;BME280;18301;51.076;17.046;2023-04-15T19:09:52;99677.97;;;12.72;70.83
31717;BME280;18301;51.076;17.046;2023-04-15T19:14:53;99687.06;;;12.71;70.75
31717;BME280;18301;51.076;17.046;2023-04-15T19:19:54;99696.19;;;12.70;70.95
31717;BME280;18301;51.076;17.046;2023-04-15T19:24:56;99692.75;;;12.67;71.80
31717;BME280;18301;51.076;17.046;2023-04-15T19:29:57;99700.88;;;12.67;71.29
31717;BME280;18301;51.076;17.046;2023-04-15T19:34:59;99696.50;;;12.47;73.39
31717;BME280;18301;51.076;17.046;2023-04-15T19:40:01;99702.47;;;12.51;73.66
31717;BME280;18301;51.076;17.046;2023-04-15T19:45:02;99705.59;;;12.46;73.89
31717;BME280;18301;51.076;17.046;2023-04-15T19:50:05;99716.13;;;12.49;73.16
31717;BME280;18301;51.076;17.046;2023-04-15T19:55:07;99724.13;;;12.51;73.01
31717;BME280;18301;51.076;17.046;2023-04-15T20:00:09;99718.44;;;12.44;73.44
31717;BME280;18301;51.076;17.046;2023-04-15T20:05:10;99722.69;;;12.56;73.10
31717;BME280;18301;51.076;17.046;2023-04-15T20:10:13;99724.41;;;12.38;74.10
31717;BME280;18301;51.076;17.046;2023-04-15T20:15:14;99731.78;;;12.36;73.73
31717;BME280;18301;51.076;17.046;2023-04-15T20:20:16;99739.75;;;12.28;74.03
31717;BME280;18301;51.076;17.046;2023-04-15T20:25:18;99741.47;;;12.29;74.18
31717;BME280;18301;51.076;17.046;2023-04-15T20:30:20;99740.19;;;12.33;74.21
31717;BME280;18301;51.076;17.046;2023-04-15T20:35:21;99734.22;;;12.29;74.80
31717;BME280;18301;51.076;17.046;2023-04-15T20:40:23;99743.47;;;12.27;75.02
31717;BME280;18301;51.076;17.046;2023-04-15T20:45:24;99745.44;;;12.25;75.66
31717;BME280;18301;51.076;17.046;2023-04-15T20:50:26;99745.44;;;12.25;74.75
31717;BME280;18301;51.076;17.046;2023-04-15T20:55:27;99753.16;;;12.19;75.28
31717;BME280;18301;51.076;17.046;2023-04-15T21:00:31;99761.69;;;12.25;74.93
31717;BME280;18301;51.076;17.046;2023-04-15T21:05:33;99758.28;;;12.23;75.24
31717;BME280;18301;51.076;17.046;2023-04-15T21:10:34;99767.22;;;12.13;75.22
31717;BME280;18301;51.076;17.046;2023-04-15T21:15:36;99777.31;;;12.11;75.27
31717;BME280;18301;51.076;17.046;2023-04-15T21:20:37;99777.91;;;12.25;75.13
31717;BME280;18301;51.076;17.046;2023-04-15T21:25:39;99780.75;;;12.13;75.38
31717;BME280;18301;51.076;17.046;2023-04-15T21:30:40;99779.56;;;12.06;75.71
31717;BME280;18301;51.076;17.046;2023-04-15T21:35:42;99776.44;;;12.01;75.69
31717;BME280;18301;51.076;17.046;2023-04-15T21:40:43;99790.50;;;11.95;75.80
31717;BME280;18301;51.076;17.046;2023-04-15T21:45:45;99798.63;;;11.95;75.98
31717;BME280;18301;51.076;17.046;2023-04-15T21:51:06;99795.91;;;11.95;76.16
31717;BME280;18301;51.076;17.046;2023-04-15T21:56:08;99797.34;;;11.99;76.65
31717;BME280;18301;51.076;17.046;2023-04-15T22:01:10;99803.22;;;12.04;77.06
31717;BME280;18301;51.076;17.046;2023-04-15T22:06:11;99810.03;;;12.08;77.16
31717;BME280;18301;51.076;17.046;2023-04-15T22:11:18;99808.06;;;12.10;77.38
31717;BME280;18301;51.076;17.046;2023-04-15T22:16:26;99816.88;;;12.12;77.13
31717;BME280;18301;51.076;17.046;2023-04-15T22:21:28;99822.28;;;12.12;77.26
31717;BME280;18301;51.076;17.046;2023-04-15T22:26:30;99838.09;;;12.07;77.47
31717;BME280;18301;51.076;17.046;2023-04-15T22:31:31;99834.75;;;11.94;77.20
31717;BME280;18301;51.076;17.046;2023-04-15T22:36:33;99841.19;;;11.82;77.83
31717;BME280;18301;51.076;17.046;2023-04-15T22:41:34;99860.28;;;11.80;78.12
31717;BME280;18301;51.076;17.046;2023-04-15T22:46:36;99867.88;;;11.65;78.08
31717;BME280;18301;51.076;17.046;2023-04-15T22:51:38;99872.09;;;11.58;78.66
31717;BME280;18301;51.076;17.046;2023-04-15T22:56:40;99876.28;;;11.51;78.62
31717;BME280;18301;51.076;17.046;2023-04-15T23:01:42;99886.31;;;11.60;79.43
31717;BME280;18301;51.076;17.046;2023-04-15T23:06:43;99886.84;;;11.54;79.74
31717;BME280;18301;51.076;17.046;2023-04-15T23:11:46;99878.47;;;11.57;79.74
31717;BME280;18301;51.076;17.046;2023-04-15T23:16:47;99875.78;;;11.57;79.74
31717;BME280;18301;51.076;17.046;2023-04-15T23:21:49;99879.69;;;11.64;79.45
31717;BME280;18301;51.076;17.046;2023-04-15T23:26:50;99875.72;;;11.47;79.70
31717;BME280;18301;51.076;17.046;2023-04-15T23:31:53;99874.84;;;11.47;79.94
31717;BME280;18301;51.076;17.046;2023-04-15T23:36:54;99871.16;;;11.48;79.98
31717;BME280;18301;51.076;17.046;2023-04-15T23:41:56;99873.16;;;11.46;79.75
31717;BME280;18301;51.076;17.046;2023-04-15T23:46:57;99871.69;;;11.42;80.13
31717;BME280;18301;51.076;17.046;2023-04-15T23:51:59;99879.09;;;11.40;80.07
31717;BME280;18301;51.076;17.046;2023-04-15T23:57:00;99879.59;;;11.34;80.52
